sensor_id;sensor_type;location;lat;lon;timestamp;temperature;humidity
63313;DHT22;49442;45.640;13.812;2023-03-01T00:01:04;21.40;71.30
63313;DHT22;49442;45.640;13.812;2023-03-01T00:03:30;21.40;72.10
63313;DHT22;49442;45.640;13.812;2023-03-01T00:05:57;21.40;71.50
63313;DHT22;49442;45.640;13.812;2023-03-01T00:08:23;21.40;71.40
63313;DHT22;49442;45.640;13.812;2023-03-01T00:10:48;21.40;71.30
63313;DHT22;49442;45.640;13.812;2023-03-01T00:13:14;21.40;71.30
63313;DHT22;49442;45.640;13.812;2023-03-01T00:15:40;21.40;71.20
63313;DHT22;49442;45.640;13.812;2023-03-01T00:18:09;21.40;71.20
63313;DHT22;49442;45.640;13.812;2023-03-01T00:20:35;21.30;71.30
63313;DHT22;49442;45.640;13.812;2023-03-01T00:23:00;21.30;71.20
63313;DHT22;49442;45.640;13.812;2023-03-01T00:25:26;21.30;71.20
63313;DHT22;49442;45.640;13.812;2023-03-01T00:27:52;21.30;71.30
63313;DHT22;49442;45.640;13.812;2023-03-01T00:30:17;21.30;70.90
63313;DHT22;49442;45.640;13.812;2023-03-01T00:32:43;21.30;71.00
63313;DHT22;49442;45.640;13.812;2023-03-01T00:35:09;21.30;71.20
63313;DHT22;49442;45.640;13.812;2023-03-01T00:37:34;21.20;71.10
63313;DHT22;49442;45.640;13.812;2023-03-01T00:40:00;21.20;71.20
63313;DHT22;49442;45.640;13.812;2023-03-01T00:42:26;21.30;71.00
63313;DHT22;49442;45.640;13.812;2023-03-01T00:44:51;21.20;70.50
63313;DHT22;49442;45.640;13.812;2023-03-01T00:47:17;21.20;70.70
63313;DHT22;49442;45.640;13.812;2023-03-01T00:49:43;21.20;70.70
63313;DHT22;49442;45.640;13.812;2023-03-01T00:52:08;21.20;70.50
63313;DHT22;49442;45.640;13.812;2023-03-01T00:54:34;21.10;70.40
63313;DHT22;49442;45.640;13.812;2023-03-01T00:56:59;21.20;70.40
63313;DHT22;49442;45.640;13.812;2023-03-01T00:59:25;21.10;70.10
63313;DHT22;49442;45.640;13.812;2023-03-01T01:01:51;21.10;70.40
63313;DHT22;49442;45.640;13.812;2023-03-01T01:04:16;21.10;70.20
63313;DHT22;49442;45.640;13.812;2023-03-01T01:06:44;21.10;70.40
63313;DHT22;49442;45.640;13.812;2023-03-01T01:09:13;21.10;70.40
63313;DHT22;49442;45.640;13.812;2023-03-01T01:11:46;21.00;70.10
63313;DHT22;49442;45.640;13.812;2023-03-01T01:14:13;21.00;70.10
63313;DHT22;49442;45.640;13.812;2023-03-01T01:16:38;21.00;70.20
63313;DHT22;49442;45.640;13.812;2023-03-01T01:19:04;21.00;71.00
63313;DHT22;49442;45.640;13.812;2023-03-01T01:21:30;21.00;70.40
63313;DHT22;49442;45.640;13.812;2023-03-01T01:23:56;20.90;70.50
63313;DHT22;49442;45.640;13.812;2023-03-01T01:26:28;21.00;70.20
63313;DHT22;49442;45.640;13.812;2023-03-01T01:28:54;21.00;70.90
63313;DHT22;49442;45.640;13.812;2023-03-01T01:31:21;20.90;69.90
63313;DHT22;49442;45.640;13.812;2023-03-01T01:33:49;20.90;70.10
63313;DHT22;49442;45.640;13.812;2023-03-01T01:36:15;20.90;70.00
63313;DHT22;49442;45.640;13.812;2023-03-01T01:38:41;20.90;69.80
63313;DHT22;49442;45.640;13.812;2023-03-01T01:41:08;20.90;69.70
63313;DHT22;49442;45.640;13.812;2023-03-01T01:43:42;20.90;69.50
63313;DHT22;49442;45.640;13.812;2023-03-01T01:46:29;20.90;69.80
63313;DHT22;49442;45.640;13.812;2023-03-01T01:52:18;20.90;69.60
63313;DHT22;49442;45.640;13.812;2023-03-01T01:55:00;20.90;69.50
63313;DHT22;49442;45.640;13.812;2023-03-01T01:57:41;20.90;69.90
63313;DHT22;49442;45.640;13.812;2023-03-01T02:00:14;20.90;69.80
63313;DHT22;49442;45.640;13.812;2023-03-01T02:02:41;20.90;69.50
63313;DHT22;49442;45.640;13.812;2023-03-01T02:08:05;20.80;69.60
63313;DHT22;49442;45.640;13.812;2023-03-01T02:10:33;20.80;69.60
63313;DHT22;49442;45.640;13.812;2023-03-01T02:13:00;20.90;69.70
63313;DHT22;49442;45.640;13.812;2023-03-01T02:15:32;20.80;69.70
63313;DHT22;49442;45.640;13.812;2023-03-01T02:17:58;20.80;69.80
63313;DHT22;49442;45.640;13.812;2023-03-01T02:23:10;20.80;69.60
63313;DHT22;49442;45.640;13.812;2023-03-01T02:28:42;20.80;69.70
63313;DHT22;49442;45.640;13.812;2023-03-01T02:31:09;20.70;69.80
63313;DHT22;49442;45.640;13.812;2023-03-01T02:33:55;20.70;70.00
63313;DHT22;49442;45.640;13.812;2023-03-01T02:39:14;20.70;70.00
63313;DHT22;49442;45.640;13.812;2023-03-01T02:41:49;20.70;69.90
63313;DHT22;49442;45.640;13.812;2023-03-01T02:44:15;20.70;69.70
63313;DHT22;49442;45.640;13.812;2023-03-01T02:46:43;20.70;70.00
63313;DHT22;49442;45.640;13.812;2023-03-01T02:49:20;20.70;70.00
63313;DHT22;49442;45.640;13.812;2023-03-01T02:57:16;20.60;69.60
63313;DHT22;49442;45.640;13.812;2023-03-01T02:59:42;20.60;69.60
63313;DHT22;49442;45.640;13.812;2023-03-01T03:02:20;20.60;69.70
63313;DHT22;49442;45.640;13.812;2023-03-01T03:04:47;20.60;69.50
63313;DHT22;49442;45.640;13.812;2023-03-01T03:07:13;20.60;69.70
63313;DHT22;49442;45.640;13.812;2023-03-01T03:09:39;20.60;69.90
63313;DHT22;49442;45.640;13.812;2023-03-01T03:12:05;20.60;69.90
63313;DHT22;49442;45.640;13.812;2023-03-01T03:14:30;20.50;69.50
63313;DHT22;49442;45.640;13.812;2023-03-01T03:17:00;20.50;69.60
63313;DHT22;49442;45.640;13.812;2023-03-01T03:19:26;20.50;70.30
63313;DHT22;49442;45.640;13.812;2023-03-01T03:21:51;20.50;69.50
63313;DHT22;49442;45.640;13.812;2023-03-01T03:24:17;20.50;69.50
63313;DHT22;49442;45.640;13.812;2023-03-01T03:26:43;20.50;69.50
63313;DHT22;49442;45.640;13.812;2023-03-01T03:29:09;20.50;69.60
63313;DHT22;49442;45.640;13.812;2023-03-01T03:31:34;20.50;69.60
63313;DHT22;49442;45.640;13.812;2023-03-01T03:34:00;20.50;69.50
63313;DHT22;49442;45.640;13.812;2023-03-01T03:36:26;20.50;69.50
63313;DHT22;49442;45.640;13.812;2023-03-01T03:38:51;20.50;69.50
63313;DHT22;49442;45.640;13.812;2023-03-01T03:41:17;20.40;69.60
63313;DHT22;49442;45.640;13.812;2023-03-01T03:43:44;20.40;69.50
63313;DHT22;49442;45.640;13.812;2023-03-01T03:46:10;20.40;69.50
63313;DHT22;49442;45.640;13.812;2023-03-01T03:48:44;20.40;69.60
63313;DHT22;49442;45.640;13.812;2023-03-01T03:51:11;20.40;69.40
63313;DHT22;49442;45.640;13.812;2023-03-01T03:53:37;20.40;69.50
63313;DHT22;49442;45.640;13.812;2023-03-01T03:56:03;20.40;69.70
63313;DHT22;49442;45.640;13.812;2023-03-01T03:58:29;20.40;69.40
63313;DHT22;49442;45.640;13.812;2023-03-01T04:00:56;20.40;69.50
63313;DHT22;49442;45.640;13.812;2023-03-01T04:03:23;20.40;69.70
63313;DHT22;49442;45.640;13.812;2023-03-01T04:05:51;20.40;69.60
63313;DHT22;49442;45.640;13.812;2023-03-01T04:08:18;20.40;69.70
63313;DHT22;49442;45.640;13.812;2023-03-01T04:10:48;20.40;69.50
63313;DHT22;49442;45.640;13.812;2023-03-01T04:13:16;20.30;69.50
63313;DHT22;49442;45.640;13.812;2023-03-01T04:15:42;20.30;69.30
63313;DHT22;49442;45.640;13.812;2023-03-01T04:18:09;20.30;69.50
63313;DHT22;49442;45.640;13.812;2023-03-01T04:20:37;20.30;69.40
63313;DHT22;49442;45.640;13.812;2023-03-01T04:23:07;20.30;69.40
63313;DHT22;49442;45.640;13.812;2023-03-01T04:30:47;20.30;70.00
63313;DHT22;49442;45.640;13.812;2023-03-01T04:33:12;20.20;69.50
63313;DHT22;49442;45.640;13.812;2023-03-01T04:35:39;20.20;69.40
63313;DHT22;49442;45.640;13.812;2023-03-01T04:38:05;20.20;69.20
63313;DHT22;49442;45.640;13.812;2023-03-01T04:40:32;20.20;70.20
63313;DHT22;49442;45.640;13.812;2023-03-01T04:42:57;20.20;69.40
63313;DHT22;49442;45.640;13.812;2023-03-01T04:45:23;20.20;69.50
63313;DHT22;49442;45.640;13.812;2023-03-01T04:47:49;20.20;69.50
63313;DHT22;49442;45.640;13.812;2023-03-01T04:50:18;20.20;69.40
63313;DHT22;49442;45.640;13.812;2023-03-01T04:52:48;20.20;69.30
63313;DHT22;49442;45.640;13.812;2023-03-01T04:55:14;20.20;69.40
63313;DHT22;49442;45.640;13.812;2023-03-01T04:57:40;20.20;69.30
63313;DHT22;49442;45.640;13.812;2023-03-01T05:00:11;20.20;69.20
63313;DHT22;49442;45.640;13.812;2023-03-01T05:02:52;20.10;69.10
63313;DHT22;49442;45.640;13.812;2023-03-01T05:05:38;20.10;69.20
63313;DHT22;49442;45.640;13.812;2023-03-01T05:08:08;20.10;69.20
63313;DHT22;49442;45.640;13.812;2023-03-01T05:10:35;20.10;69.10
63313;DHT22;49442;45.640;13.812;2023-03-01T05:13:02;20.10;69.30
63313;DHT22;49442;45.640;13.812;2023-03-01T05:15:30;20.10;69.20
63313;DHT22;49442;45.640;13.812;2023-03-01T05:17:57;20.10;69.10
63313;DHT22;49442;45.640;13.812;2023-03-01T05:20:30;20.10;69.00
63313;DHT22;49442;45.640;13.812;2023-03-01T05:22:58;20.00;69.10
63313;DHT22;49442;45.640;13.812;2023-03-01T05:25:24;20.10;69.10
63313;DHT22;49442;45.640;13.812;2023-03-01T05:27:50;20.10;68.90
63313;DHT22;49442;45.640;13.812;2023-03-01T05:30:16;20.00;68.90
63313;DHT22;49442;45.640;13.812;2023-03-01T05:32:44;20.10;69.10
63313;DHT22;49442;45.640;13.812;2023-03-01T05:35:11;20.00;69.10
63313;DHT22;49442;45.640;13.812;2023-03-01T05:37:42;20.00;69.10
63313;DHT22;49442;45.640;13.812;2023-03-01T05:40:10;20.00;69.10
63313;DHT22;49442;45.640;13.812;2023-03-01T05:42:44;20.00;69.00
63313;DHT22;49442;45.640;13.812;2023-03-01T05:45:11;20.00;69.10
63313;DHT22;49442;45.640;13.812;2023-03-01T05:47:38;20.00;69.30
63313;DHT22;49442;45.640;13.812;2023-03-01T05:50:19;20.00;69.30
63313;DHT22;49442;45.640;13.812;2023-03-01T05:52:57;20.00;69.20
63313;DHT22;49442;45.640;13.812;2023-03-01T05:55:23;20.00;69.30
63313;DHT22;49442;45.640;13.812;2023-03-01T05:57:48;20.00;69.30
63313;DHT22;49442;45.640;13.812;2023-03-01T06:00:17;20.00;69.20
63313;DHT22;49442;45.640;13.812;2023-03-01T06:02:43;19.90;69.30
63313;DHT22;49442;45.640;13.812;2023-03-01T06:05:10;19.90;69.20
63313;DHT22;49442;45.640;13.812;2023-03-01T06:07:36;19.90;69.20
63313;DHT22;49442;45.640;13.812;2023-03-01T06:10:04;19.90;69.10
63313;DHT22;49442;45.640;13.812;2023-03-01T06:12:34;19.90;69.10
63313;DHT22;49442;45.640;13.812;2023-03-01T06:14:59;19.90;69.10
63313;DHT22;49442;45.640;13.812;2023-03-01T06:17:26;19.90;69.30
63313;DHT22;49442;45.640;13.812;2023-03-01T06:19:51;19.90;69.30
63313;DHT22;49442;45.640;13.812;2023-03-01T06:22:17;19.90;69.40
63313;DHT22;49442;45.640;13.812;2023-03-01T06:24:43;19.90;69.40
63313;DHT22;49442;45.640;13.812;2023-03-01T06:27:08;19.90;69.30
63313;DHT22;49442;45.640;13.812;2023-03-01T06:29:34;19.90;69.20
63313;DHT22;49442;45.640;13.812;2023-03-01T06:32:00;19.90;69.10
63313;DHT22;49442;45.640;13.812;2023-03-01T06:34:25;19.90;69.20
63313;DHT22;49442;45.640;13.812;2023-03-01T06:36:51;19.90;69.30
63313;DHT22;49442;45.640;13.812;2023-03-01T06:39:17;19.80;69.20
63313;DHT22;49442;45.640;13.812;2023-03-01T06:41:43;19.80;69.10
63313;DHT22;49442;45.640;13.812;2023-03-01T06:44:09;19.80;69.40
63313;DHT22;49442;45.640;13.812;2023-03-01T06:46:34;19.80;69.40
63313;DHT22;49442;45.640;13.812;2023-03-01T06:49:00;19.80;69.50
63313;DHT22;49442;45.640;13.812;2023-03-01T06:51:26;19.80;69.50
63313;DHT22;49442;45.640;13.812;2023-03-01T06:53:51;19.80;69.50
63313;DHT22;49442;45.640;13.812;2023-03-01T06:56:17;19.80;69.50
63313;DHT22;49442;45.640;13.812;2023-03-01T06:58:42;19.80;69.60
63313;DHT22;49442;45.640;13.812;2023-03-01T07:01:09;19.80;69.60
63313;DHT22;49442;45.640;13.812;2023-03-01T07:03:34;19.80;69.50
63313;DHT22;49442;45.640;13.812;2023-03-01T07:06:00;19.80;69.30
63313;DHT22;49442;45.640;13.812;2023-03-01T07:08:26;19.80;69.10
63313;DHT22;49442;45.640;13.812;2023-03-01T07:10:56;19.80;69.20
63313;DHT22;49442;45.640;13.812;2023-03-01T07:13:22;19.80;69.40
63313;DHT22;49442;45.640;13.812;2023-03-01T07:15:47;19.80;69.30
63313;DHT22;49442;45.640;13.812;2023-03-01T07:18:13;19.70;64.60
63313;DHT22;49442;45.640;13.812;2023-03-01T07:20:39;19.60;65.90
63313;DHT22;49442;45.640;13.812;2023-03-01T07:23:05;19.50;68.50
63313;DHT22;49442;45.640;13.812;2023-03-01T07:25:31;19.50;67.70
63313;DHT22;49442;45.640;13.812;2023-03-01T07:27:58;19.50;67.80
63313;DHT22;49442;45.640;13.812;2023-03-01T07:30:23;19.50;68.20
63313;DHT22;49442;45.640;13.812;2023-03-01T07:32:51;19.50;68.00
63313;DHT22;49442;45.640;13.812;2023-03-01T07:35:17;19.50;68.00
63313;DHT22;49442;45.640;13.812;2023-03-01T07:37:43;19.50;68.00
63313;DHT22;49442;45.640;13.812;2023-03-01T07:40:11;19.50;67.80
63313;DHT22;49442;45.640;13.812;2023-03-01T07:42:37;19.50;68.20
63313;DHT22;49442;45.640;13.812;2023-03-01T07:45:03;19.50;67.80
63313;DHT22;49442;45.640;13.812;2023-03-01T07:47:29;19.50;68.10
63313;DHT22;49442;45.640;13.812;2023-03-01T07:49:55;19.50;68.00
63313;DHT22;49442;45.640;13.812;2023-03-01T07:52:20;19.50;67.90
63313;DHT22;49442;45.640;13.812;2023-03-01T07:54:46;19.50;67.70
63313;DHT22;49442;45.640;13.812;2023-03-01T07:57:12;19.50;67.50
63313;DHT22;49442;45.640;13.812;2023-03-01T07:59:37;19.50;67.70
63313;DHT22;49442;45.640;13.812;2023-03-01T08:02:03;19.50;68.00
63313;DHT22;49442;45.640;13.812;2023-03-01T08:04:29;19.50;67.80
63313;DHT22;49442;45.640;13.812;2023-03-01T08:06:55;19.50;67.80
63313;DHT22;49442;45.640;13.812;2023-03-01T08:09:21;19.50;67.70
63313;DHT22;49442;45.640;13.812;2023-03-01T08:11:47;19.50;67.70
63313;DHT22;49442;45.640;13.812;2023-03-01T08:14:12;19.50;67.50
63313;DHT22;49442;45.640;13.812;2023-03-01T08:16:38;19.50;67.50
63313;DHT22;49442;45.640;13.812;2023-03-01T08:19:08;19.50;67.90
63313;DHT22;49442;45.640;13.812;2023-03-01T08:21:34;19.60;67.80
63313;DHT22;49442;45.640;13.812;2023-03-01T08:24:05;19.60;67.60
63313;DHT22;49442;45.640;13.812;2023-03-01T08:26:31;19.70;67.70
63313;DHT22;49442;45.640;13.812;2023-03-01T08:28:57;19.70;67.80
63313;DHT22;49442;45.640;13.812;2023-03-01T08:31:29;19.80;67.90
63313;DHT22;49442;45.640;13.812;2023-03-01T08:33:57;19.80;68.00
63313;DHT22;49442;45.640;13.812;2023-03-01T08:36:31;19.90;67.90
63313;DHT22;49442;45.640;13.812;2023-03-01T08:38:57;19.90;67.80
63313;DHT22;49442;45.640;13.812;2023-03-01T08:41:23;19.90;67.90
63313;DHT22;49442;45.640;13.812;2023-03-01T08:43:49;20.00;68.00
63313;DHT22;49442;45.640;13.812;2023-03-01T08:46:15;20.00;67.90
63313;DHT22;49442;45.640;13.812;2023-03-01T08:48:41;20.00;68.10
63313;DHT22;49442;45.640;13.812;2023-03-01T08:51:19;20.10;68.30
63313;DHT22;49442;45.640;13.812;2023-03-01T08:53:46;20.10;68.20
63313;DHT22;49442;45.640;13.812;2023-03-01T08:56:12;20.10;68.20
63313;DHT22;49442;45.640;13.812;2023-03-01T08:58:38;20.20;68.60
63313;DHT22;49442;45.640;13.812;2023-03-01T09:01:13;20.20;68.60
63313;DHT22;49442;45.640;13.812;2023-03-01T09:03:40;20.20;68.70
63313;DHT22;49442;45.640;13.812;2023-03-01T09:06:07;20.30;68.30
63313;DHT22;49442;45.640;13.812;2023-03-01T09:08:40;20.30;68.60
63313;DHT22;49442;45.640;13.812;2023-03-01T09:11:09;20.40;68.60
63313;DHT22;49442;45.640;13.812;2023-03-01T09:13:35;20.40;68.70
63313;DHT22;49442;45.640;13.812;2023-03-01T09:16:03;20.40;68.60
63313;DHT22;49442;45.640;13.812;2023-03-01T09:18:29;20.40;68.70
63313;DHT22;49442;45.640;13.812;2023-03-01T09:23:27;20.50;68.30
63313;DHT22;49442;45.640;13.812;2023-03-01T09:25:53;20.50;68.20
63313;DHT22;49442;45.640;13.812;2023-03-01T09:28:18;20.50;67.90
63313;DHT22;49442;45.640;13.812;2023-03-01T09:30:44;20.60;67.80
63313;DHT22;49442;45.640;13.812;2023-03-01T09:33:10;20.60;67.80
63313;DHT22;49442;45.640;13.812;2023-03-01T09:35:40;20.60;67.70
63313;DHT22;49442;45.640;13.812;2023-03-01T09:38:11;20.60;67.70
63313;DHT22;49442;45.640;13.812;2023-03-01T09:40:42;20.60;67.20
63313;DHT22;49442;45.640;13.812;2023-03-01T09:43:18;20.50;65.80
63313;DHT22;49442;45.640;13.812;2023-03-01T09:45:47;20.50;65.20
63313;DHT22;49442;45.640;13.812;2023-03-01T09:48:20;20.40;65.60
63313;DHT22;49442;45.640;13.812;2023-03-01T09:50:48;20.50;66.10
63313;DHT22;49442;45.640;13.812;2023-03-01T09:53:23;20.50;65.80
63313;DHT22;49442;45.640;13.812;2023-03-01T09:55:58;20.60;66.00
63313;DHT22;49442;45.640;13.812;2023-03-01T10:03:49;20.60;66.00
63313;DHT22;49442;45.640;13.812;2023-03-01T10:06:23;20.60;66.80
63313;DHT22;49442;45.640;13.812;2023-03-01T10:09:02;20.70;69.50
63313;DHT22;49442;45.640;13.812;2023-03-01T10:11:43;20.70;69.90
63313;DHT22;49442;45.640;13.812;2023-03-01T10:14:16;20.70;71.20
63313;DHT22;49442;45.640;13.812;2023-03-01T10:19:46;20.80;71.60
63313;DHT22;49442;45.640;13.812;2023-03-01T10:24:44;20.70;71.70
63313;DHT22;49442;45.640;13.812;2023-03-01T10:27:22;20.70;71.60
63313;DHT22;49442;45.640;13.812;2023-03-01T10:29:58;20.70;71.50
63313;DHT22;49442;45.640;13.812;2023-03-01T10:32:26;20.80;71.30
63313;DHT22;49442;45.640;13.812;2023-03-01T10:34:52;20.80;71.10
63313;DHT22;49442;45.640;13.812;2023-03-01T10:37:20;20.80;71.00
63313;DHT22;49442;45.640;13.812;2023-03-01T10:42:54;20.80;71.00
63313;DHT22;49442;45.640;13.812;2023-03-01T10:48:08;20.80;71.00
63313;DHT22;49442;45.640;13.812;2023-03-01T10:50:36;20.80;71.30
63313;DHT22;49442;45.640;13.812;2023-03-01T10:53:05;20.80;71.10
63313;DHT22;49442;45.640;13.812;2023-03-01T10:55:40;20.80;71.30
63313;DHT22;49442;45.640;13.812;2023-03-01T10:58:26;20.90;71.30
63313;DHT22;49442;45.640;13.812;2023-03-01T11:00:58;20.90;71.30
63313;DHT22;49442;45.640;13.812;2023-03-01T11:03:27;20.90;71.30
63313;DHT22;49442;45.640;13.812;2023-03-01T11:08:34;20.90;71.00
63313;DHT22;49442;45.640;13.812;2023-03-01T11:13:35;20.90;71.00
63313;DHT22;49442;45.640;13.812;2023-03-01T11:16:03;20.90;71.10
63313;DHT22;49442;45.640;13.812;2023-03-01T11:18:31;20.90;71.20
63313;DHT22;49442;45.640;13.812;2023-03-01T11:20:58;20.90;71.20
63313;DHT22;49442;45.640;13.812;2023-03-01T11:23:25;20.90;71.00
63313;DHT22;49442;45.640;13.812;2023-03-01T11:26:02;20.90;71.00
63313;DHT22;49442;45.640;13.812;2023-03-01T11:28:30;20.90;71.20
63313;DHT22;49442;45.640;13.812;2023-03-01T11:31:05;20.90;71.50
63313;DHT22;49442;45.640;13.812;2023-03-01T11:42:00;20.90;72.00
63313;DHT22;49442;45.640;13.812;2023-03-01T11:44:29;21.00;72.10
63313;DHT22;49442;45.640;13.812;2023-03-01T14:07:39;21.20;76.60
63313;DHT22;49442;45.640;13.812;2023-03-01T14:10:07;21.20;77.30
63313;DHT22;49442;45.640;13.812;2023-03-01T14:15:53;21.10;77.90
63313;DHT22;49442;45.640;13.812;2023-03-01T14:18:34;21.10;78.00
63313;DHT22;49442;45.640;13.812;2023-03-01T14:21:07;21.20;77.90
63313;DHT22;49442;45.640;13.812;2023-03-01T14:23:33;21.10;77.90
63313;DHT22;49442;45.640;13.812;2023-03-01T14:26:01;21.10;77.70
63313;DHT22;49442;45.640;13.812;2023-03-01T14:28:29;21.10;77.70
63313;DHT22;49442;45.640;13.812;2023-03-01T14:30:56;21.10;77.30
63313;DHT22;49442;45.640;13.812;2023-03-01T14:36:07;21.10;77.10
63313;DHT22;49442;45.640;13.812;2023-03-01T14:38:40;21.10;76.90
63313;DHT22;49442;45.640;13.812;2023-03-01T14:41:24;21.10;76.90
63313;DHT22;49442;45.640;13.812;2023-03-01T14:43:57;21.10;76.40
63313;DHT22;49442;45.640;13.812;2023-03-01T14:46:35;21.10;76.50
63313;DHT22;49442;45.640;13.812;2023-03-01T14:51:37;21.00;76.20
63313;DHT22;49442;45.640;13.812;2023-03-01T14:54:27;21.00;75.90
63313;DHT22;49442;45.640;13.812;2023-03-01T14:56:52;21.00;75.90
63313;DHT22;49442;45.640;13.812;2023-03-01T14:59:22;21.00;76.20
63313;DHT22;49442;45.640;13.812;2023-03-01T15:01:53;21.00;76.00
63313;DHT22;49442;45.640;13.812;2023-03-01T15:04:21;21.00;75.90
63313;DHT22;49442;45.640;13.812;2023-03-01T15:06:51;21.00;75.90
63313;DHT22;49442;45.640;13.812;2023-03-01T15:09:17;20.90;75.60
63313;DHT22;49442;45.640;13.812;2023-03-01T15:11:43;20.90;75.40
63313;DHT22;49442;45.640;13.812;2023-03-01T15:14:36;20.90;75.20
63313;DHT22;49442;45.640;13.812;2023-03-01T15:17:04;20.90;75.20
63313;DHT22;49442;45.640;13.812;2023-03-01T15:19:30;20.90;75.40
63313;DHT22;49442;45.640;13.812;2023-03-01T15:21:56;20.90;74.90
63313;DHT22;49442;45.640;13.812;2023-03-01T15:24:25;20.90;74.90
63313;DHT22;49442;45.640;13.812;2023-03-01T15:26:58;20.90;74.70
63313;DHT22;49442;45.640;13.812;2023-03-01T15:29:33;20.90;75.00
63313;DHT22;49442;45.640;13.812;2023-03-01T15:32:05;20.80;74.80
63313;DHT22;49442;45.640;13.812;2023-03-01T15:34:32;20.80;74.70
63313;DHT22;49442;45.640;13.812;2023-03-01T15:37:00;20.80;74.40
63313;DHT22;49442;45.640;13.812;2023-03-01T15:42:46;20.80;73.80
63313;DHT22;49442;45.640;13.812;2023-03-01T15:47:34;20.70;73.90
63313;DHT22;49442;45.640;13.812;2023-03-01T15:50:01;20.80;74.00
63313;DHT22;49442;45.640;13.812;2023-03-01T15:52:34;20.80;74.00
63313;DHT22;49442;45.640;13.812;2023-03-01T15:55:04;20.70;73.80
63313;DHT22;49442;45.640;13.812;2023-03-01T15:57:31;20.80;73.50
63313;DHT22;49442;45.640;13.812;2023-03-01T15:59:57;20.70;73.30
63313;DHT22;49442;45.640;13.812;2023-03-01T16:02:23;20.70;73.10
63313;DHT22;49442;45.640;13.812;2023-03-01T16:04:50;20.70;73.30
63313;DHT22;49442;45.640;13.812;2023-03-01T16:07:16;20.70;73.30
63313;DHT22;49442;45.640;13.812;2023-03-01T16:09:42;20.70;73.40
63313;DHT22;49442;45.640;13.812;2023-03-01T16:12:13;20.70;73.30
63313;DHT22;49442;45.640;13.812;2023-03-01T16:14:40;20.70;73.20
63313;DHT22;49442;45.640;13.812;2023-03-01T16:17:05;20.70;73.40
63313;DHT22;49442;45.640;13.812;2023-03-01T16:19:33;20.70;73.50
63313;DHT22;49442;45.640;13.812;2023-03-01T16:21:58;20.60;73.40
63313;DHT22;49442;45.640;13.812;2023-03-01T16:24:24;20.60;73.30
63313;DHT22;49442;45.640;13.812;2023-03-01T16:26:51;20.60;73.30
63313;DHT22;49442;45.640;13.812;2023-03-01T16:29:17;20.60;73.40
63313;DHT22;49442;45.640;13.812;2023-03-01T16:31:42;20.60;73.50
63313;DHT22;49442;45.640;13.812;2023-03-01T16:34:08;20.60;73.70
63313;DHT22;49442;45.640;13.812;2023-03-01T16:36:34;20.60;73.50
63313;DHT22;49442;45.640;13.812;2023-03-01T16:39:00;20.60;73.50
63313;DHT22;49442;45.640;13.812;2023-03-01T16:41:27;20.60;73.50
63313;DHT22;49442;45.640;13.812;2023-03-01T16:43:53;20.60;73.60
63313;DHT22;49442;45.640;13.812;2023-03-01T16:46:21;20.60;73.50
63313;DHT22;49442;45.640;13.812;2023-03-01T16:48:48;20.60;73.70
63313;DHT22;49442;45.640;13.812;2023-03-01T16:51:14;20.70;73.70
63313;DHT22;49442;45.640;13.812;2023-03-01T16:53:40;20.70;73.70
63313;DHT22;49442;45.640;13.812;2023-03-01T16:56:08;20.80;73.80
63313;DHT22;49442;45.640;13.812;2023-03-01T16:58:35;20.80;73.80
63313;DHT22;49442;45.640;13.812;2023-03-01T17:01:06;20.80;73.60
63313;DHT22;49442;45.640;13.812;2023-03-01T17:03:32;20.80;73.40
63313;DHT22;49442;45.640;13.812;2023-03-01T17:06:01;20.90;73.60
63313;DHT22;49442;45.640;13.812;2023-03-01T17:08:27;20.90;73.40
63313;DHT22;49442;45.640;13.812;2023-03-01T17:10:53;20.90;73.30
63313;DHT22;49442;45.640;13.812;2023-03-01T17:13:18;20.90;73.30
63313;DHT22;49442;45.640;13.812;2023-03-01T17:15:44;21.00;73.30
63313;DHT22;49442;45.640;13.812;2023-03-01T17:18:10;21.00;73.20
63313;DHT22;49442;45.640;13.812;2023-03-01T17:20:35;21.00;73.00
63313;DHT22;49442;45.640;13.812;2023-03-01T17:23:02;21.00;73.00
63313;DHT22;49442;45.640;13.812;2023-03-01T17:25:27;21.00;72.90
63313;DHT22;49442;45.640;13.812;2023-03-01T17:27:53;21.00;72.60
63313;DHT22;49442;45.640;13.812;2023-03-01T17:30:19;21.00;72.80
63313;DHT22;49442;45.640;13.812;2023-03-01T17:32:44;21.10;73.50
63313;DHT22;49442;45.640;13.812;2023-03-01T17:35:10;21.10;72.80
63313;DHT22;49442;45.640;13.812;2023-03-01T17:37:37;21.10;72.80
63313;DHT22;49442;45.640;13.812;2023-03-01T17:40:04;21.10;72.50
63313;DHT22;49442;45.640;13.812;2023-03-01T17:42:30;21.10;72.50
63313;DHT22;49442;45.640;13.812;2023-03-01T17:44:56;21.10;72.50
63313;DHT22;49442;45.640;13.812;2023-03-01T17:47:22;21.20;72.40
63313;DHT22;49442;45.640;13.812;2023-03-01T17:49:47;21.20;72.30
63313;DHT22;49442;45.640;13.812;2023-03-01T17:52:13;21.20;72.50
63313;DHT22;49442;45.640;13.812;2023-03-01T17:54:39;21.20;72.50
63313;DHT22;49442;45.640;13.812;2023-03-01T17:57:05;21.20;72.40
63313;DHT22;49442;45.640;13.812;2023-03-01T17:59:30;21.20;72.30
63313;DHT22;49442;45.640;13.812;2023-03-01T18:01:58;21.20;72.30
63313;DHT22;49442;45.640;13.812;2023-03-01T18:04:26;21.20;72.30
63313;DHT22;49442;45.640;13.812;2023-03-01T18:06:52;21.20;72.10
63313;DHT22;49442;45.640;13.812;2023-03-01T18:09:17;21.30;72.20
63313;DHT22;49442;45.640;13.812;2023-03-01T18:11:43;21.30;72.00
63313;DHT22;49442;45.640;13.812;2023-03-01T18:14:09;21.30;72.10
63313;DHT22;49442;45.640;13.812;2023-03-01T18:16:35;21.30;72.20
63313;DHT22;49442;45.640;13.812;2023-03-01T18:19:01;21.30;72.20
63313;DHT22;49442;45.640;13.812;2023-03-01T18:21:28;21.30;72.30
63313;DHT22;49442;45.640;13.812;2023-03-01T18:23:54;21.30;72.30
63313;DHT22;49442;45.640;13.812;2023-03-01T18:26:20;21.30;72.50
63313;DHT22;49442;45.640;13.812;2023-03-01T18:28:48;21.40;72.70
63313;DHT22;49442;45.640;13.812;2023-03-01T18:31:17;21.40;72.60
63313;DHT22;49442;45.640;13.812;2023-03-01T18:33:46;21.40;72.60
63313;DHT22;49442;45.640;13.812;2023-03-01T18:36:27;21.40;72.60
63313;DHT22;49442;45.640;13.812;2023-03-01T18:38:53;21.40;72.50
63313;DHT22;49442;45.640;13.812;2023-03-01T18:41:20;21.40;72.50
63313;DHT22;49442;45.640;13.812;2023-03-01T18:43:46;21.50;72.50
63313;DHT22;49442;45.640;13.812;2023-03-01T18:46:13;21.40;72.70
63313;DHT22;49442;45.640;13.812;2023-03-01T18:48:38;21.40;72.70
63313;DHT22;49442;45.640;13.812;2023-03-01T18:51:13;21.50;72.70
63313;DHT22;49442;45.640;13.812;2023-03-01T18:53:39;21.50;72.60